sensor_id;sensor_type;location;lat;lon;timestamp;noise_LAeq;noise_LA_min;noise_LA_max;noise_LA01;noise_LA95
69608;Laerm;57251;52.248;4.812;2023-04-01T00:00:01;41.95;32.71;56.33;;
69608;Laerm;57251;52.248;4.812;2023-04-01T00:00:12;37.27;31.27;48.45;;
69608;Laerm;57251;52.248;4.812;2023-04-01T00:00:23;45.77;32.48;63.04;;
69608;Laerm;57251;52.248;4.812;2023-04-01T00:00:34;51.51;33.30;62.24;;
69608;Laerm;57251;52.248;4.812;2023-04-01T00:00:44;48.68;32.08;59.24;;
69608;Laerm;57251;52.248;4.812;2023-04-01T00:00:56;43.61;32.52;55.40;;
69608;Laerm;57251;52.248;4.812;2023-04-01T00:01:07;47.93;32.71;63.76;;
69608;Laerm;57251;52.248;4.812;2023-04-01T00:01:17;45.71;33.99;56.91;;
69608;Laerm;57251;52.248;4.812;2023-04-01T00:01:28;40.91;33.52;54.74;;
69608;Laerm;57251;52.248;4.812;2023-04-01T00:01:41;42.89;35.23;50.49;;
69608;Laerm;57251;52.248;4.812;2023-04-01T00:01:51;48.48;41.95;57.46;;
69608;Laerm;57251;52.248;4.812;2023-04-01T00:02:01;51.43;37.79;65.15;;
69608;Laerm;57251;52.248;4.812;2023-04-01T00:02:11;56.06;34.87;67.97;;
69608;Laerm;57251;52.248;4.812;2023-04-01T00:02:22;56.74;34.61;67.31;;
69608;Laerm;57251;52.248;4.812;2023-04-01T00:02:32;53.60;35.72;65.13;;
69608;Laerm;57251;52.248;4.812;2023-04-01T00:02:42;48.08;31.83;63.17;;
69608;Laerm;57251;52.248;4.812;2023-04-01T00:02:53;46.06;33.31;59.46;;
69608;Laerm;57251;52.248;4.812;2023-04-01T00:03:06;45.47;33.09;62.66;;
69608;Laerm;57251;52.248;4.812;2023-04-01T00:03:29;41.94;33.00;57.92;;
69608;Laerm;57251;52.248;4.812;2023-04-01T00:04:06;48.54;33.89;64.45;;
69608;Laerm;57251;52.248;4.812;2023-04-01T00:04:16;44.81;39.96;53.19;;
69608;Laerm;57251;52.248;4.812;2023-04-01T00:04:26;45.38;39.49;63.13;;
69608;Laerm;57251;52.248;4.812;2023-04-01T00:04:37;43.22;39.30;51.85;;
69608;Laerm;57251;52.248;4.812;2023-04-01T00:04:47;44.32;40.03;59.51;;
69608;Laerm;57251;52.248;4.812;2023-04-01T00:04:58;45.97;39.55;57.70;;
69608;Laerm;57251;52.248;4.812;2023-04-01T00:05:15;48.72;39.29;62.18;;
69608;Laerm;57251;52.248;4.812;2023-04-01T00:05:26;60.67;38.40;76.26;;
69608;Laerm;57251;52.248;4.812;2023-04-01T00:05:39;51.87;38.72;64.11;;
69608;Laerm;57251;52.248;4.812;2023-04-01T00:05:50;47.56;35.69;59.90;;
69608;Laerm;57251;52.248;4.812;2023-04-01T00:06:03;55.16;39.81;67.03;;
69608;Laerm;57251;52.248;4.812;2023-04-01T00:06:14;53.65;40.23;69.63;;
69608;Laerm;57251;52.248;4.812;2023-04-01T00:06:25;47.01;37.36;62.68;;
69608;Laerm;57251;52.248;4.812;2023-04-01T00:06:36;45.93;35.93;67.44;;
69608;Laerm;57251;52.248;4.812;2023-04-01T00:06:46;59.97;36.31;72.01;;
69608;Laerm;57251;52.248;4.812;2023-04-01T00:06:57;62.91;36.52;74.27;;
69608;Laerm;57251;52.248;4.812;2023-04-01T00:07:08;54.19;35.01;69.13;;
69608;Laerm;57251;52.248;4.812;2023-04-01T00:07:18;55.45;35.87;69.91;;
69608;Laerm;57251;52.248;4.812;2023-04-01T00:07:28;42.16;36.71;52.77;;
69608;Laerm;57251;52.248;4.812;2023-04-01T00:07:39;53.10;37.66;65.55;;
69608;Laerm;57251;52.248;4.812;2023-04-01T00:08:00;53.50;36.89;67.32;;
69608;Laerm;57251;52.248;4.812;2023-04-01T00:08:20;61.24;35.77;77.01;;
69608;Laerm;57251;52.248;4.812;2023-04-01T00:08:36;60.72;40.08;79.29;;
69608;Laerm;57251;52.248;4.812;2023-04-01T00:08:51;60.66;40.29;73.49;;
69608;Laerm;57251;52.248;4.812;2023-04-01T00:09:05;63.47;44.45;76.22;;
69608;Laerm;57251;52.248;4.812;2023-04-01T00:09:15;59.63;44.86;73.99;;
69608;Laerm;57251;52.248;4.812;2023-04-01T00:09:26;53.74;43.66;76.11;;
69608;Laerm;57251;52.248;4.812;2023-04-01T00:09:45;46.52;42.21;52.93;;
69608;Laerm;57251;52.248;4.812;2023-04-01T00:09:56;49.61;42.32;63.89;;
69608;Laerm;57251;52.248;4.812;2023-04-01T00:10:07;52.52;47.07;64.99;;
69608;Laerm;57251;52.248;4.812;2023-04-01T00:10:17;54.07;48.85;65.56;;
69608;Laerm;57251;52.248;4.812;2023-04-01T00:10:31;54.09;48.63;66.53;;
69608;Laerm;57251;52.248;4.812;2023-04-01T00:10:50;54.05;47.81;64.76;;
69608;Laerm;57251;52.248;4.812;2023-04-01T00:11:01;53.51;47.42;66.67;;
69608;Laerm;57251;52.248;4.812;2023-04-01T00:11:14;50.32;46.01;57.92;;
69608;Laerm;57251;52.248;4.812;2023-04-01T00:11:24;50.53;45.12;64.18;;
69608;Laerm;57251;52.248;4.812;2023-04-01T00:11:37;58.12;44.18;75.44;;
69608;Laerm;57251;52.248;4.812;2023-04-01T00:11:50;51.88;44.09;70.05;;
69608;Laerm;57251;52.248;4.812;2023-04-01T00:12:16;48.51;38.83;69.70;;
69608;Laerm;57251;52.248;4.812;2023-04-01T00:12:29;53.19;38.20;69.72;;
69608;Laerm;57251;52.248;4.812;2023-04-01T00:12:40;60.50;39.46;73.94;;
69608;Laerm;57251;52.248;4.812;2023-04-01T00:12:51;56.56;38.31;71.40;;
69608;Laerm;57251;52.248;4.812;2023-04-01T00:13:04;54.63;37.75;68.26;;
69608;Laerm;57251;52.248;4.812;2023-04-01T00:13:23;50.25;38.00;65.92;;
69608;Laerm;57251;52.248;4.812;2023-04-01T00:13:54;43.18;36.86;55.37;;
69608;Laerm;57251;52.248;4.812;2023-04-01T00:14:05;39.82;36.13;50.31;;
69608;Laerm;57251;52.248;4.812;2023-04-01T00:14:16;58.49;38.20;70.89;;
69608;Laerm;57251;52.248;4.812;2023-04-01T00:14:26;65.77;41.29;75.47;;
69608;Laerm;57251;52.248;4.812;2023-04-01T00:14:37;42.72;35.94;54.28;;
69608;Laerm;57251;52.248;4.812;2023-04-01T00:14:47;50.97;37.07;63.04;;
69608;Laerm;57251;52.248;4.812;2023-04-01T00:15:10;44.94;36.52;63.26;;
69608;Laerm;57251;52.248;4.812;2023-04-01T00:15:37;62.97;36.61;79.70;;
69608;Laerm;57251;52.248;4.812;2023-04-01T00:15:48;55.94;36.86;68.12;;
69608;Laerm;57251;52.248;4.812;2023-04-01T00:15:59;40.00;36.49;50.95;;
69608;Laerm;57251;52.248;4.812;2023-04-01T00:16:15;44.92;37.14;60.36;;
69608;Laerm;57251;52.248;4.812;2023-04-01T00:16:31;53.92;40.74;68.29;;
69608;Laerm;57251;52.248;4.812;2023-04-01T00:16:58;50.98;39.23;68.16;;
69608;Laerm;57251;52.248;4.812;2023-04-01T00:17:14;50.93;38.32;72.54;;
69608;Laerm;57251;52.248;4.812;2023-04-01T00:17:29;50.05;38.47;70.26;;
69608;Laerm;57251;52.248;4.812;2023-04-01T00:17:48;55.99;38.41;76.32;;
69608;Laerm;57251;52.248;4.812;2023-04-01T00:18:04;57.36;38.44;72.83;;
69608;Laerm;57251;52.248;4.812;2023-04-01T00:18:28;51.71;36.91;67.00;;
69608;Laerm;57251;52.248;4.812;2023-04-01T00:18:39;44.34;36.72;55.05;;
69608;Laerm;57251;52.248;4.812;2023-04-01T00:18:50;51.38;38.62;65.77;;
69608;Laerm;57251;52.248;4.812;2023-04-01T00:19:01;53.96;39.52;67.88;;
69608;Laerm;57251;52.248;4.812;2023-04-01T00:19:11;52.52;42.52;66.86;;
69608;Laerm;57251;52.248;4.812;2023-04-01T00:19:27;68.57;42.53;87.32;;
69608;Laerm;57251;52.248;4.812;2023-04-01T00:19:42;56.92;39.00;68.45;;
69608;Laerm;57251;52.248;4.812;2023-04-01T00:19:57;52.89;39.71;63.88;;
69608;Laerm;57251;52.248;4.812;2023-04-01T00:20:11;59.77;39.21;76.33;;
69608;Laerm;57251;52.248;4.812;2023-04-01T00:20:21;58.12;34.77;71.15;;
69608;Laerm;57251;52.248;4.812;2023-04-01T00:20:35;42.76;35.87;53.15;;
69608;Laerm;57251;52.248;4.812;2023-04-01T00:20:53;39.46;34.95;53.81;;
69608;Laerm;57251;52.248;4.812;2023-04-01T00:21:04;38.11;34.34;52.91;;
69608;Laerm;57251;52.248;4.812;2023-04-01T00:21:15;39.17;35.27;48.36;;
69608;Laerm;57251;52.248;4.812;2023-04-01T00:21:29;52.53;35.53;63.83;;
69608;Laerm;57251;52.248;4.812;2023-04-01T00:21:48;43.07;34.23;60.71;;
69608;Laerm;57251;52.248;4.812;2023-04-01T00:22:02;37.88;34.27;49.56;;
69608;Laerm;57251;52.248;4.812;2023-04-01T00:22:21;41.92;33.93;57.44;;
69608;Laerm;57251;52.248;4.812;2023-04-01T00:22:37;53.36;35.63;66.71;;
69608;Laerm;57251;52.248;4.812;2023-04-01T00:22:51;41.34;36.54;48.29;;
69608;Laerm;57251;52.248;4.812;2023-04-01T00:23:02;40.45;34.44;49.91;;
69608;Laerm;57251;52.248;4.812;2023-04-01T00:23:16;39.81;35.42;48.37;;
69608;Laerm;57251;52.248;4.812;2023-04-01T00:23:27;39.14;34.92;49.98;;
69608;Laerm;57251;52.248;4.812;2023-04-01T00:23:40;44.11;34.63;59.88;;
69608;Laerm;57251;52.248;4.812;2023-04-01T00:23:54;41.31;35.32;52.26;;
69608;Laerm;57251;52.248;4.812;2023-04-01T00:24:10;48.45;34.19;61.23;;
69608;Laerm;57251;52.248;4.812;2023-04-01T00:24:27;51.29;33.58;62.42;;
69608;Laerm;57251;52.248;4.812;2023-04-01T00:24:43;39.09;33.12;52.14;;
69608;Laerm;57251;52.248;4.812;2023-04-01T00:25:08;40.20;32.82;52.69;;
69608;Laerm;57251;52.248;4.812;2023-04-01T00:25:27;40.45;32.93;54.51;;
69608;Laerm;57251;52.248;4.812;2023-04-01T00:25:38;46.68;33.41;59.96;;
69608;Laerm;57251;52.248;4.812;2023-04-01T00:25:51;48.11;33.70;65.04;;
69608;Laerm;57251;52.248;4.812;2023-04-01T00:26:05;40.23;34.90;55.36;;
69608;Laerm;57251;52.248;4.812;2023-04-01T00:26:16;56.72;36.89;68.40;;
69608;Laerm;57251;52.248;4.812;2023-04-01T00:26:31;48.86;34.72;61.54;;
69608;Laerm;57251;52.248;4.812;2023-04-01T00:26:42;43.19;38.54;52.57;;
69608;Laerm;57251;52.248;4.812;2023-04-01T00:27:00;41.52;37.01;50.46;;
69608;Laerm;57251;52.248;4.812;2023-04-01T00:27:10;43.06;35.42;61.81;;
69608;Laerm;57251;52.248;4.812;2023-04-01T00:27:27;38.88;33.48;51.07;;
69608;Laerm;57251;52.248;4.812;2023-04-01T00:27:41;61.92;34.89;74.08;;
69608;Laerm;57251;52.248;4.812;2023-04-01T00:27:52;45.56;33.89;61.27;;
69608;Laerm;57251;52.248;4.812;2023-04-01T00:28:02;42.62;34.98;58.46;;
69608;Laerm;57251;52.248;4.812;2023-04-01T00:28:42;55.00;35.50;73.10;;
69608;Laerm;57251;52.248;4.812;2023-04-01T00:28:58;46.82;35.74;63.32;;
69608;Laerm;57251;52.248;4.812;2023-04-01T00:29:15;44.34;39.51;51.58;;
69608;Laerm;57251;52.248;4.812;2023-04-01T00:29:25;40.41;35.37;50.54;;
69608;Laerm;57251;52.248;4.812;2023-04-01T00:29:50;42.78;36.17;50.35;;
69608;Laerm;57251;52.248;4.812;2023-04-01T00:30:34;55.60;34.61;72.34;;
69608;Laerm;57251;52.248;4.812;2023-04-01T00:30:51;54.72;34.91;66.82;;
69608;Laerm;57251;52.248;4.812;2023-04-01T00:31:22;60.63;36.90;74.29;;
69608;Laerm;57251;52.248;4.812;2023-04-01T00:31:35;41.84;36.05;51.63;;
69608;Laerm;57251;52.248;4.812;2023-04-01T00:31:53;44.28;35.68;57.86;;
69608;Laerm;57251;52.248;4.812;2023-04-01T00:32:06;40.65;37.09;48.20;;
69608;Laerm;57251;52.248;4.812;2023-04-01T00:32:37;40.62;33.82;61.48;;
69608;Laerm;57251;52.248;4.812;2023-04-01T00:32:51;46.84;36.86;58.70;;
69608;Laerm;57251;52.248;4.812;2023-04-01T00:33:03;51.72;34.00;65.81;;
69608;Laerm;57251;52.248;4.812;2023-04-01T00:33:20;62.41;37.37;79.89;;
69608;Laerm;57251;52.248;4.812;2023-04-01T00:33:37;61.55;39.08;74.65;;
69608;Laerm;57251;52.248;4.812;2023-04-01T00:33:51;54.34;34.77;69.68;;
69608;Laerm;57251;52.248;4.812;2023-04-01T00:34:13;50.04;34.47;64.61;;
69608;Laerm;57251;52.248;4.812;2023-04-01T00:34:24;53.35;35.24;66.05;;
69608;Laerm;57251;52.248;4.812;2023-04-01T00:34:37;43.23;34.46;57.02;;
69608;Laerm;57251;52.248;4.812;2023-04-01T00:34:54;52.27;33.57;70.11;;
69608;Laerm;57251;52.248;4.812;2023-04-01T00:35:07;50.85;33.84;65.65;;
69608;Laerm;57251;52.248;4.812;2023-04-01T00:35:18;38.57;32.42;51.85;;
69608;Laerm;57251;52.248;4.812;2023-04-01T00:35:29;36.50;32.59;46.05;;
69608;Laerm;57251;52.248;4.812;2023-04-01T00:35:43;38.17;32.95;48.96;;
69608;Laerm;57251;52.248;4.812;2023-04-01T00:36:10;42.39;32.96;55.15;;
69608;Laerm;57251;52.248;4.812;2023-04-01T00:36:21;36.15;32.19;52.29;;
69608;Laerm;57251;52.248;4.812;2023-04-01T00:36:36;53.19;32.78;66.82;;
69608;Laerm;57251;52.248;4.812;2023-04-01T00:36:55;56.12;33.39;72.68;;
69608;Laerm;57251;52.248;4.812;2023-04-01T00:37:07;47.13;33.92;58.92;;
69608;Laerm;57251;52.248;4.812;2023-04-01T00:37:18;55.25;32.51;73.20;;
69608;Laerm;57251;52.248;4.812;2023-04-01T00:37:33;48.12;32.42;62.32;;
69608;Laerm;57251;52.248;4.812;2023-04-01T00:38:05;54.11;34.24;67.82;;
69608;Laerm;57251;52.248;4.812;2023-04-01T00:38:36;37.64;32.85;53.81;;
69608;Laerm;57251;52.248;4.812;2023-04-01T00:39:22;39.47;36.92;43.06;;
69608;Laerm;57251;52.248;4.812;2023-04-01T00:39:32;39.19;35.08;53.80;;
69608;Laerm;57251;52.248;4.812;2023-04-01T00:39:57;51.76;35.41;65.08;;
69608;Laerm;57251;52.248;4.812;2023-04-01T00:40:32;44.02;33.45;63.89;;
69608;Laerm;57251;52.248;4.812;2023-04-01T00:40:57;47.87;33.51;66.07;;
69608;Laerm;57251;52.248;4.812;2023-04-01T00:41:29;53.73;33.64;77.87;;
69608;Laerm;57251;52.248;4.812;2023-04-01T00:41:40;64.51;38.85;74.86;;
69608;Laerm;57251;52.248;4.812;2023-04-01T00:41:53;57.12;34.89;74.08;;
69608;Laerm;57251;52.248;4.812;2023-04-01T00:42:08;53.61;34.41;66.00;;
69608;Laerm;57251;52.248;4.812;2023-04-01T00:42:22;40.27;33.80;55.54;;
69608;Laerm;57251;52.248;4.812;2023-04-01T00:42:39;45.01;35.52;61.00;;
69608;Laerm;57251;52.248;4.812;2023-04-01T00:42:53;50.52;36.70;61.56;;
69608;Laerm;57251;52.248;4.812;2023-04-01T00:43:17;46.07;40.06;56.24;;
69608;Laerm;57251;52.248;4.812;2023-04-01T00:43:29;43.94;36.32;56.89;;
69608;Laerm;57251;52.248;4.812;2023-04-01T00:43:41;41.08;37.89;46.23;;
69608;Laerm;57251;52.248;4.812;2023-04-01T00:44:38;41.13;36.62;52.14;;
69608;Laerm;57251;52.248;4.812;2023-04-01T00:45:23;50.07;36.61;68.46;;
69608;Laerm;57251;52.248;4.812;2023-04-01T00:45:40;51.64;36.87;65.75;;
69608;Laerm;57251;52.248;4.812;2023-04-01T00:45:54;68.55;38.83;82.35;;
69608;Laerm;57251;52.248;4.812;2023-04-01T00:46:07;40.83;37.10;49.96;;
69608;Laerm;57251;52.248;4.812;2023-04-01T00:46:27;63.93;40.39;75.78;;
69608;Laerm;57251;52.248;4.812;2023-04-01T00:46:49;58.11;38.09;75.65;;
69608;Laerm;57251;52.248;4.812;2023-04-01T00:47:03;52.26;42.21;65.80;;
69608;Laerm;57251;52.248;4.812;2023-04-01T00:47:17;52.28;42.28;63.54;;
69608;Laerm;57251;52.248;4.812;2023-04-01T00:47:27;53.57;40.71;68.44;;
69608;Laerm;57251;52.248;4.812;2023-04-01T00:47:41;60.79;37.27;80.26;;
69608;Laerm;57251;52.248;4.812;2023-04-01T00:47:58;60.17;38.18;73.53;;
69608;Laerm;57251;52.248;4.812;2023-04-01T00:48:10;56.39;36.60;71.30;;
69608;Laerm;57251;52.248;4.812;2023-04-01T00:48:24;39.69;35.02;49.63;;
69608;Laerm;57251;52.248;4.812;2023-04-01T00:48:50;54.73;36.31;71.30;;
69608;Laerm;57251;52.248;4.812;2023-04-01T00:49:01;58.46;36.33;74.12;;
69608;Laerm;57251;52.248;4.812;2023-04-01T00:49:15;45.36;36.09;55.38;;
69608;Laerm;57251;52.248;4.812;2023-04-01T00:49:30;54.82;38.04;68.16;;
69608;Laerm;57251;52.248;4.812;2023-04-01T00:49:43;58.46;36.60;70.15;;
69608;Laerm;57251;52.248;4.812;2023-04-01T00:49:57;44.54;36.72;55.93;;
69608;Laerm;57251;52.248;4.812;2023-04-01T00:50:13;60.40;37.00;74.01;;
69608;Laerm;57251;52.248;4.812;2023-04-01T00:50:23;52.79;36.33;66.70;;
69608;Laerm;57251;52.248;4.812;2023-04-01T00:50:39;40.86;35.65;51.38;;
69608;Laerm;57251;52.248;4.812;2023-04-01T00:51:06;43.07;35.63;60.59;;
69608;Laerm;57251;52.248;4.812;2023-04-01T00:51:27;41.65;36.05;59.58;;
69608;Laerm;57251;52.248;4.812;2023-04-01T00:51:39;43.43;37.35;58.63;;
69608;Laerm;57251;52.248;4.812;2023-04-01T00:51:52;41.53;36.61;53.19;;
69608;Laerm;57251;52.248;4.812;2023-04-01T00:52:09;40.94;36.78;59.55;;
69608;Laerm;57251;52.248;4.812;2023-04-01T00:52:27;42.90;36.45;55.81;;
69608;Laerm;57251;52.248;4.812;2023-04-01T00:52:41;42.22;38.94;49.67;;
69608;Laerm;57251;52.248;4.812;2023-04-01T00:53:01;50.78;39.95;64.13;;
69608;Laerm;57251;52.248;4.812;2023-04-01T00:53:12;53.00;36.01;69.69;;
69608;Laerm;57251;52.248;4.812;2023-04-01T00:53:26;48.40;36.45;61.78;;
69608;Laerm;57251;52.248;4.812;2023-04-01T00:53:47;42.49;36.92;51.67;;
69608;Laerm;57251;52.248;4.812;2023-04-01T00:54:01;47.29;35.51;64.18;;
69608;Laerm;57251;52.248;4.812;2023-04-01T00:54:14;41.55;35.79;56.22;;
69608;Laerm;57251;52.248;4.812;2023-04-01T00:54:29;41.85;36.15;48.66;;
69608;Laerm;57251;52.248;4.812;2023-04-01T00:54:46;51.60;35.21;70.92;;
69608;Laerm;57251;52.248;4.812;2023-04-01T00:55:03;46.58;35.14;61.95;;
69608;Laerm;57251;52.248;4.812;2023-04-01T00:55:16;48.34;35.34;63.49;;
69608;Laerm;57251;52.248;4.812;2023-04-01T00:55:43;45.83;34.73;64.91;;
69608;Laerm;57251;52.248;4.812;2023-04-01T00:56:00;55.60;35.66;68.49;;
69608;Laerm;57251;52.248;4.812;2023-04-01T00:56:21;45.38;33.83;60.84;;
69608;Laerm;57251;52.248;4.812;2023-04-01T00:56:44;50.88;33.63;64.06;;
69608;Laerm;57251;52.248;4.812;2023-04-01T00:57:06;54.41;34.32;68.73;;
69608;Laerm;57251;52.248;4.812;2023-04-01T00:57:19;42.64;33.41;56.02;;
69608;Laerm;57251;52.248;4.812;2023-04-01T00:57:32;44.09;33.69;58.34;;
69608;Laerm;57251;52.248;4.812;2023-04-01T00:57:45;47.26;33.74;61.21;;
69608;Laerm;57251;52.248;4.812;2023-04-01T00:57:59;45.21;33.75;64.67;;
69608;Laerm;57251;52.248;4.812;2023-04-01T00:58:25;37.26;34.51;49.39;;
69608;Laerm;57251;52.248;4.812;2023-04-01T00:59:18;44.51;36.22;58.42;;
69608;Laerm;57251;52.248;4.812;2023-04-01T00:59:38;41.95;33.11;56.69;;
69608;Laerm;57251;52.248;4.812;2023-04-01T00:59:53;39.71;33.27;55.05;;
69608;Laerm;57251;52.248;4.812;2023-04-01T01:00:10;45.92;33.86;63.23;;
69608;Laerm;57251;52.248;4.812;2023-04-01T01:00:26;58.38;38.26;71.85;;
69608;Laerm;57251;52.248;4.812;2023-04-01T01:00:39;49.68;33.96;62.94;;
69608;Laerm;57251;52.248;4.812;2023-04-01T01:00:50;41.05;33.01;55.56;;
69608;Laerm;57251;52.248;4.812;2023-04-01T01:01:08;47.12;33.83;60.83;;
69608;Laerm;57251;52.248;4.812;2023-04-01T01:01:22;40.91;33.35;52.56;;
69608;Laerm;57251;52.248;4.812;2023-04-01T01:01:37;36.20;33.14;43.80;;
69608;Laerm;57251;52.248;4.812;2023-04-01T01:01:53;49.18;33.60;64.26;;
69608;Laerm;57251;52.248;4.812;2023-04-01T01:02:07;56.38;34.69;69.52;;
69608;Laerm;57251;52.248;4.812;2023-04-01T01:02:18;39.61;32.99;57.15;;
69608;Laerm;57251;52.248;4.812;2023-04-01T01:02:38;37.74;33.15;48.08;;
69608;Laerm;57251;52.248;4.812;2023-04-01T01:02:51;36.32;32.86;48.41;;
69608;Laerm;57251;52.248;4.812;2023-04-01T01:03:10;36.60;33.70;47.58;;
69608;Laerm;57251;52.248;4.812;2023-04-01T01:03:21;36.99;33.66;47.73;;
69608;Laerm;57251;52.248;4.812;2023-04-01T01:03:41;38.46;33.84;49.49;;
69608;Laerm;57251;52.248;4.812;2023-04-01T01:03:57;37.13;33.34;47.12;;
69608;Laerm;57251;52.248;4.812;2023-04-01T01:04:29;36.72;34.04;42.45;;
69608;Laerm;57251;52.248;4.812;2023-04-01T01:04:41;45.36;34.14;57.73;;
69608;Laerm;57251;52.248;4.812;2023-04-01T01:04:51;44.23;38.16;52.06;;
69608;Laerm;57251;52.248;4.812;2023-04-01T01:05:23;41.03;36.40;56.46;;
69608;Laerm;57251;52.248;4.812;2023-04-01T01:05:54;39.11;35.38;51.54;;
69608;Laerm;57251;52.248;4.812;2023-04-01T01:06:10;44.14;34.69;58.28;;
69608;Laerm;57251;52.248;4.812;2023-04-01T01:07:08;52.28;39.24;63.80;;
69608;Laerm;57251;52.248;4.812;2023-04-01T01:10:05;39.58;33.35;50.01;;
69608;Laerm;57251;52.248;4.812;2023-04-01T01:10:29;52.06;33.19;66.76;;
69608;Laerm;57251;52.248;4.812;2023-04-01T01:11:08;38.83;32.57;59.42;;
69608;Laerm;57251;52.248;4.812;2023-04-01T01:11:26;46.17;32.93;61.79;;
69608;Laerm;57251;52.248;4.812;2023-04-01T01:12:40;54.48;36.36;67.59;;
69608;Laerm;57251;52.248;4.812;2023-04-01T01:13:17;43.84;32.62;60.84;;
69608;Laerm;57251;52.248;4.812;2023-04-01T01:14:08;38.53;32.44;54.42;;
69608;Laerm;57251;52.248;4.812;2023-04-01T01:15:54;35.00;32.55;45.27;;
69608;Laerm;57251;52.248;4.812;2023-04-01T01:16:11;34.99;33.01;41.00;;
69608;Laerm;57251;52.248;4.812;2023-04-01T01:16:36;63.71;33.84;78.57;;
69608;Laerm;57251;52.248;4.812;2023-04-01T01:16:53;49.81;34.59;66.42;;
69608;Laerm;57251;52.248;4.812;2023-04-01T01:17:19;50.86;37.32;64.94;;
69608;Laerm;57251;52.248;4.812;2023-04-01T01:17:40;53.12;34.69;69.56;;
69608;Laerm;57251;52.248;4.812;2023-04-01T01:18:55;39.26;34.02;50.74;;
69608;Laerm;57251;52.248;4.812;2023-04-01T01:21:41;41.42;33.33;56.34;;
69608;Laerm;57251;52.248;4.812;2023-04-01T01:23:07;58.56;34.50;76.91;;
69608;Laerm;57251;52.248;4.812;2023-04-01T01:24:28;54.92;34.94;67.70;;
69608;Laerm;57251;52.248;4.812;2023-04-01T01:27:16;48.28;33.85;68.11;;
69608;Laerm;57251;52.248;4.812;2023-04-01T01:27:34;52.69;34.93;65.98;;
69608;Laerm;57251;52.248;4.812;2023-04-01T01:28:32;44.15;38.37;49.92;;
69608;Laerm;57251;52.248;4.812;2023-04-01T01:30:46;58.93;33.42;74.25;;
69608;Laerm;57251;52.248;4.812;2023-04-01T01:31:29;57.31;33.85;76.71;;
69608;Laerm;57251;52.248;4.812;2023-04-01T01:31:55;59.60;33.58;80.28;;
69608;Laerm;57251;52.248;4.812;2023-04-01T01:32:55;56.76;35.29;73.62;;
69608;Laerm;57251;52.248;4.812;2023-04-01T01:33:24;54.00;35.26;70.19;;
69608;Laerm;57251;52.248;4.812;2023-04-01T01:34:28;48.85;35.32;62.68;;
69608;Laerm;57251;52.248;4.812;2023-04-01T01:34:53;56.38;36.49;71.46;;
69608;Laerm;57251;52.248;4.812;2023-04-01T01:35:49;53.15;34.40;72.69;;
69608;Laerm;57251;52.248;4.812;2023-04-01T01:36:04;39.78;34.94;57.67;;
69608;Laerm;57251;52.248;4.812;2023-04-01T01:36:48;60.99;36.39;76.44;;
69608;Laerm;57251;52.248;4.812;2023-04-01T01:37:02;53.17;36.67;68.88;;
69608;Laerm;57251;52.248;4.812;2023-04-01T01:37:19;41.91;36.33;54.55;;
69608;Laerm;57251;52.248;4.812;2023-04-01T01:37:31;40.69;35.71;48.82;;
69608;Laerm;57251;52.248;4.812;2023-04-01T01:37:50;43.20;36.26;51.47;;
69608;Laerm;57251;52.248;4.812;2023-04-01T01:38:06;44.92;35.72;57.12;;
69608;Laerm;57251;52.248;4.812;2023-04-01T01:38:26;43.93;35.99;59.11;;
69608;Laerm;57251;52.248;4.812;2023-04-01T01:38:40;38.37;34.85;48.22;;
69608;Laerm;57251;52.248;4.812;2023-04-01T01:38:56;56.55;34.81;69.51;;
69608;Laerm;57251;52.248;4.812;2023-04-01T01:39:16;54.42;34.62;73.26;;
69608;Laerm;57251;52.248;4.812;2023-04-01T01:39:28;49.41;34.98;60.66;;
69608;Laerm;57251;52.248;4.812;2023-04-01T01:39:50;40.53;34.40;51.01;;
69608;Laerm;57251;52.248;4.812;2023-04-01T01:40:08;39.60;34.59;49.83;;
69608;Laerm;57251;52.248;4.812;2023-04-01T01:40:23;37.80;33.94;55.64;;
69608;Laerm;57251;52.248;4.812;2023-04-01T01:40:35;49.31;33.81;62.15;;
69608;Laerm;57251;52.248;4.812;2023-04-01T01:41:17;42.18;34.31;59.45;;
69608;Laerm;57251;52.248;4.812;2023-04-01T01:41:35;43.19;34.58;56.23;;
69608;Laerm;57251;52.248;4.812;2023-04-01T01:41:52;48.66;35.02;65.15;;
69608;Laerm;57251;52.248;4.812;2023-04-01T01:42:04;37.95;34.18;52.10;;
69608;Laerm;57251;52.248;4.812;2023-04-01T01:42:16;40.16;34.70;53.33;;
69608;Laerm;57251;52.248;4.812;2023-04-01T01:42:35;37.79;35.07;47.92;;
69608;Laerm;57251;52.248;4.812;2023-04-01T01:42:57;43.57;35.48;55.43;;
69608;Laerm;57251;52.248;4.812;2023-04-01T01:43:18;48.62;35.26;61.29;;
69608;Laerm;57251;52.248;4.812;2023-04-01T01:43:37;44.12;34.53;56.50;;
69608;Laerm;57251;52.248;4.812;2023-04-01T01:43:52;37.12;34.22;47.27;;
69608;Laerm;57251;52.248;4.812;2023-04-01T01:44:29;41.73;33.66;55.90;;
69608;Laerm;57251;52.248;4.812;2023-04-01T01:44:41;58.77;38.27;74.46;;
69608;Laerm;57251;52.248;4.812;2023-04-01T01:44:56;45.63;36.12;65.39;;
69608;Laerm;57251;52.248;4.812;2023-04-01T01:45:26;51.69;36.16;67.55;;
69608;Laerm;57251;52.248;4.812;2023-04-01T01:45:38;49.96;36.33;66.97;;
69608;Laerm;57251;52.248;4.812;2023-04-01T01:45:52;40.76;35.37;54.40;;
69608;Laerm;57251;52.248;4.812;2023-04-01T01:46:09;39.77;35.19;56.20;;
69608;Laerm;57251;52.248;4.812;2023-04-01T01:46:24;43.72;36.40;56.96;;
69608;Laerm;57251;52.248;4.812;2023-04-01T01:46:40;57.41;37.92;71.97;;
69608;Laerm;57251;52.248;4.812;2023-04-01T01:46:51;55.98;35.84;72.07;;
69608;Laerm;57251;52.248;4.812;2023-04-01T01:47:23;48.85;35.62;65.83;;
69608;Laerm;57251;52.248;4.812;2023-04-01T01:47:41;41.23;35.17;57.03;;
69608;Laerm;57251;52.248;4.812;2023-04-01T01:48:01;43.30;35.02;57.70;;
69608;Laerm;57251;52.248;4.812;2023-04-01T01:48:18;39.26;34.61;47.74;;
69608;Laerm;57251;52.248;4.812;2023-04-01T01:48:33;38.91;35.66;49.30;;
69608;Laerm;57251;52.248;4.812;2023-04-01T01:48:44;39.37;35.78;48.68;;
69608;Laerm;57251;52.248;4.812;2023-04-01T01:48:59;39.69;35.11;47.72;;
69608;Laerm;57251;52.248;4.812;2023-04-01T01:49:10;39.95;36.29;52.09;;
69608;Laerm;57251;52.248;4.812;2023-04-01T01:49:21;41.16;36.39;57.14;;
69608;Laerm;57251;52.248;4.812;2023-04-01T01:49:32;42.19;38.54;53.93;;
69608;Laerm;57251;52.248;4.812;2023-04-01T01:49:43;48.08;37.01;60.32;;
69608;Laerm;57251;52.248;4.812;2023-04-01T01:49:57;40.46;35.63;51.29;;
69608;Laerm;57251;52.248;4.812;2023-04-01T01:50:18;38.99;35.30;48.56;;
69608;Laerm;57251;52.248;4.812;2023-04-01T01:50:30;42.96;36.89;52.55;;
69608;Laerm;57251;52.248;4.812;2023-04-01T01:50:47;38.92;35.46;49.29;;
69608;Laerm;57251;52.248;4.812;2023-04-01T01:51:02;39.15;35.56;47.81;;
69608;Laerm;57251;52.248;4.812;2023-04-01T01:51:12;43.81;36.00;56.67;;
69608;Laerm;57251;52.248;4.812;2023-04-01T01:51:28;40.17;36.53;46.82;;
69608;Laerm;57251;52.248;4.812;2023-04-01T01:51:49;56.65;36.95;77.37;;
69608;Laerm;57251;52.248;4.812;2023-04-01T01:52:00;55.67;36.95;67.15;;
69608;Laerm;57251;52.248;4.812;2023-04-01T01:52:12;45.45;35.72;57.03;;
69608;Laerm;57251;52.248;4.812;2023-04-01T01:52:27;40.57;35.52;53.93;;
69608;Laerm;57251;52.248;4.812;2023-04-01T01:53:19;54.24;34.15;74.52;;
69608;Laerm;57251;52.248;4.812;2023-04-01T01:53:32;40.55;34.84;52.18;;
69608;Laerm;57251;52.248;4.812;2023-04-01T01:53:43;41.92;35.18;53.51;;